sensor_id;sensor_type;location;lat;lon;timestamp;pressure;altitude;pressure_sealevel;temperature
67353;BMP180;54238;52.278;21.056;2023-04-03T00:02:07;100932.80;;;3.00
67353;BMP180;54238;52.278;21.056;2023-04-03T00:04:39;100938.00;;;2.90
67353;BMP180;54238;52.278;21.056;2023-04-03T00:07:42;100939.60;;;2.84
67353;BMP180;54238;52.278;21.056;2023-04-03T00:10:12;100945.00;;;2.80
67353;BMP180;54238;52.278;21.056;2023-04-03T00:12:40;100945.20;;;2.80
67353;BMP180;54238;52.278;21.056;2023-04-03T00:15:10;100945.60;;;2.70
67353;BMP180;54238;52.278;21.056;2023-04-03T00:17:40;100948.00;;;2.70
67353;BMP180;54238;52.278;21.056;2023-04-03T00:20:10;100952.40;;;2.60
67353;BMP180;54238;52.278;21.056;2023-04-03T00:22:39;100947.60;;;2.60
67353;BMP180;54238;52.278;21.056;2023-04-03T00:25:11;100950.00;;;2.50
67353;BMP180;54238;52.278;21.056;2023-04-03T00:27:42;100951.60;;;2.50
67353;BMP180;54238;52.278;21.056;2023-04-03T00:30:19;100948.40;;;2.40
67353;BMP180;54238;52.278;21.056;2023-04-03T00:32:55;100952.60;;;2.40
67353;BMP180;54238;52.278;21.056;2023-04-03T00:35:30;100951.20;;;2.34
67353;BMP180;54238;52.278;21.056;2023-04-03T00:42:02;100954.40;;;2.26
67353;BMP180;54238;52.278;21.056;2023-04-03T00:47:01;100953.20;;;2.20
67353;BMP180;54238;52.278;21.056;2023-04-03T00:49:35;100954.80;;;2.20
67353;BMP180;54238;52.278;21.056;2023-04-03T00:52:13;100954.60;;;2.18
67353;BMP180;54238;52.278;21.056;2023-04-03T00:54:47;100956.80;;;2.10
67353;BMP180;54238;52.278;21.056;2023-04-03T00:57:16;100951.80;;;2.04
67353;BMP180;54238;52.278;21.056;2023-04-03T00:59:53;100955.00;;;2.00
67353;BMP180;54238;52.278;21.056;2023-04-03T01:02:22;100959.20;;;1.90
67353;BMP180;54238;52.278;21.056;2023-04-03T01:04:49;100958.80;;;1.90
67353;BMP180;54238;52.278;21.056;2023-04-03T01:07:21;100963.60;;;1.88
67353;BMP180;54238;52.278;21.056;2023-04-03T01:09:55;100970.60;;;1.80
67353;BMP180;54238;52.278;21.056;2023-04-03T01:12:33;100969.60;;;1.80
67353;BMP180;54238;52.278;21.056;2023-04-03T01:15:26;100971.40;;;1.78
67353;BMP180;54238;52.278;21.056;2023-04-03T01:18:00;100977.80;;;1.70
67353;BMP180;54238;52.278;21.056;2023-04-03T01:21:05;100976.20;;;1.68
67353;BMP180;54238;52.278;21.056;2023-04-03T01:24:11;100984.80;;;1.60
67353;BMP180;54238;52.278;21.056;2023-04-03T01:26:50;100991.40;;;1.60
67353;BMP180;54238;52.278;21.056;2023-04-03T01:29:17;100991.20;;;1.56
67353;BMP180;54238;52.278;21.056;2023-04-03T01:31:58;100994.60;;;1.50
67353;BMP180;54238;52.278;21.056;2023-04-03T01:34:30;101000.80;;;1.50
67353;BMP180;54238;52.278;21.056;2023-04-03T01:37:00;101001.20;;;1.50
67353;BMP180;54238;52.278;21.056;2023-04-03T01:39:31;100999.00;;;1.42
67353;BMP180;54238;52.278;21.056;2023-04-03T01:42:00;101006.00;;;1.40
67353;BMP180;54238;52.278;21.056;2023-04-03T01:44:30;101004.60;;;1.30
67353;BMP180;54238;52.278;21.056;2023-04-03T01:46:57;101008.20;;;1.30
67353;BMP180;54238;52.278;21.056;2023-04-03T01:49:27;101012.40;;;1.30
67353;BMP180;54238;52.278;21.056;2023-04-03T01:51:54;101008.40;;;1.30
67353;BMP180;54238;52.278;21.056;2023-04-03T01:54:24;101009.60;;;1.24
67353;BMP180;54238;52.278;21.056;2023-04-03T01:56:54;101012.60;;;1.20
67353;BMP180;54238;52.278;21.056;2023-04-03T01:59:23;101014.60;;;1.20
67353;BMP180;54238;52.278;21.056;2023-04-03T02:01:50;101017.40;;;1.20
67353;BMP180;54238;52.278;21.056;2023-04-03T02:04:20;101017.20;;;1.12
67353;BMP180;54238;52.278;21.056;2023-04-03T02:06:47;101024.40;;;1.10
67353;BMP180;54238;52.278;21.056;2023-04-03T02:09:16;101028.00;;;1.10
67353;BMP180;54238;52.278;21.056;2023-04-03T02:11:47;101026.40;;;1.10
67353;BMP180;54238;52.278;21.056;2023-04-03T02:14:15;101032.20;;;1.00
67353;BMP180;54238;52.278;21.056;2023-04-03T02:16:44;101030.60;;;1.00
67353;BMP180;54238;52.278;21.056;2023-04-03T02:19:14;101032.60;;;1.00
67353;BMP180;54238;52.278;21.056;2023-04-03T02:21:43;101034.00;;;0.94
67353;BMP180;54238;52.278;21.056;2023-04-03T02:24:12;101029.80;;;0.94
67353;BMP180;54238;52.278;21.056;2023-04-03T02:26:44;101032.20;;;0.90
67353;BMP180;54238;52.278;21.056;2023-04-03T02:29:11;101028.00;;;0.90
67353;BMP180;54238;52.278;21.056;2023-04-03T02:31:41;101031.80;;;0.88
67353;BMP180;54238;52.278;21.056;2023-04-03T02:34:10;101033.80;;;0.80
67353;BMP180;54238;52.278;21.056;2023-04-03T02:36:40;101032.00;;;0.80
67353;BMP180;54238;52.278;21.056;2023-04-03T02:39:08;101032.60;;;0.80
67353;BMP180;54238;52.278;21.056;2023-04-03T02:41:35;101036.80;;;0.74
67353;BMP180;54238;52.278;21.056;2023-04-03T02:44:06;101039.80;;;0.70
67353;BMP180;54238;52.278;21.056;2023-04-03T02:46:37;101041.20;;;0.70
67353;BMP180;54238;52.278;21.056;2023-04-03T02:49:07;101043.00;;;0.70
67353;BMP180;54238;52.278;21.056;2023-04-03T02:51:34;101043.60;;;0.70
67353;BMP180;54238;52.278;21.056;2023-04-03T02:54:07;101044.00;;;0.70
67353;BMP180;54238;52.278;21.056;2023-04-03T02:56:34;101049.20;;;0.64
67353;BMP180;54238;52.278;21.056;2023-04-03T02:59:04;101043.20;;;0.60
67353;BMP180;54238;52.278;21.056;2023-04-03T03:01:34;101047.20;;;0.60
67353;BMP180;54238;52.278;21.056;2023-04-03T03:04:04;101044.80;;;0.60
67353;BMP180;54238;52.278;21.056;2023-04-03T03:06:34;101045.80;;;0.52
67353;BMP180;54238;52.278;21.056;2023-04-03T03:09:08;101049.00;;;0.50
67353;BMP180;54238;52.278;21.056;2023-04-03T03:11:38;101043.60;;;0.50
67353;BMP180;54238;52.278;21.056;2023-04-03T03:14:06;101048.00;;;0.48
67353;BMP180;54238;52.278;21.056;2023-04-03T03:16:37;101043.20;;;0.40
67353;BMP180;54238;52.278;21.056;2023-04-03T03:19:05;101048.80;;;0.40
67353;BMP180;54238;52.278;21.056;2023-04-03T03:21:33;101054.40;;;0.40
67353;BMP180;54238;52.278;21.056;2023-04-03T03:24:00;101052.00;;;0.40
67353;BMP180;54238;52.278;21.056;2023-04-03T03:26:29;101054.80;;;0.30
67353;BMP180;54238;52.278;21.056;2023-04-03T03:29:01;101056.60;;;0.30
67353;BMP180;54238;52.278;21.056;2023-04-03T03:31:28;101056.80;;;0.30
67353;BMP180;54238;52.278;21.056;2023-04-03T03:34:00;101055.20;;;0.30
67353;BMP180;54238;52.278;21.056;2023-04-03T03:36:31;101056.80;;;0.20
67353;BMP180;54238;52.278;21.056;2023-04-03T03:39:02;101057.80;;;0.20
67353;BMP180;54238;52.278;21.056;2023-04-03T03:41:30;101058.00;;;0.20
67353;BMP180;54238;52.278;21.056;2023-04-03T03:43:58;101058.60;;;0.20
67353;BMP180;54238;52.278;21.056;2023-04-03T03:46:25;101058.20;;;0.20
67353;BMP180;54238;52.278;21.056;2023-04-03T03:48:52;101062.00;;;0.20
67353;BMP180;54238;52.278;21.056;2023-04-03T03:51:19;101058.40;;;0.20
67353;BMP180;54238;52.278;21.056;2023-04-03T03:53:46;101056.00;;;0.10
67353;BMP180;54238;52.278;21.056;2023-04-03T03:56:18;101060.00;;;0.10
67353;BMP180;54238;52.278;21.056;2023-04-03T03:58:47;101062.60;;;0.10
67353;BMP180;54238;52.278;21.056;2023-04-03T04:01:18;101062.00;;;0.06
67353;BMP180;54238;52.278;21.056;2023-04-03T04:03:45;101071.00;;;0.00
67353;BMP180;54238;52.278;21.056;2023-04-03T04:06:17;101071.60;;;0.00
67353;BMP180;54238;52.278;21.056;2023-04-03T04:08:49;101070.40;;;0.00
67353;BMP180;54238;52.278;21.056;2023-04-03T04:11:25;101075.20;;;0.00
67353;BMP180;54238;52.278;21.056;2023-04-03T04:13:56;101076.00;;;0.00
67353;BMP180;54238;52.278;21.056;2023-04-03T04:16:23;101075.60;;;-0.02
67353;BMP180;54238;52.278;21.056;2023-04-03T04:18:55;101075.20;;;0.00
67353;BMP180;54238;52.278;21.056;2023-04-03T04:21:27;101083.60;;;0.00
67353;BMP180;54238;52.278;21.056;2023-04-03T04:23:57;101084.40;;;-0.08
67353;BMP180;54238;52.278;21.056;2023-04-03T04:26:24;101080.40;;;-0.04
67353;BMP180;54238;52.278;21.056;2023-04-03T04:28:54;101082.00;;;-0.08
67353;BMP180;54238;52.278;21.056;2023-04-03T04:31:25;101080.80;;;-0.06
67353;BMP180;54238;52.278;21.056;2023-04-03T04:33:55;101084.60;;;0.00
67353;BMP180;54238;52.278;21.056;2023-04-03T04:36:22;101089.00;;;-0.02
67353;BMP180;54238;52.278;21.056;2023-04-03T04:38:49;101100.20;;;0.00
67353;BMP180;54238;52.278;21.056;2023-04-03T04:41:22;101104.00;;;0.00
67353;BMP180;54238;52.278;21.056;2023-04-03T04:43:51;101097.00;;;0.00
67353;BMP180;54238;52.278;21.056;2023-04-03T04:46:24;101103.60;;;0.00
67353;BMP180;54238;52.278;21.056;2023-04-03T04:48:53;101110.60;;;0.00
67353;BMP180;54238;52.278;21.056;2023-04-03T04:51:22;101111.40;;;0.00
67353;BMP180;54238;52.278;21.056;2023-04-03T04:53:52;101116.80;;;0.04
67353;BMP180;54238;52.278;21.056;2023-04-03T04:56:21;101115.40;;;0.08
67353;BMP180;54238;52.278;21.056;2023-04-03T04:58:55;101116.00;;;0.10
67353;BMP180;54238;52.278;21.056;2023-04-03T05:01:25;101121.60;;;0.10
67353;BMP180;54238;52.278;21.056;2023-04-03T05:03:58;101124.20;;;0.10
67353;BMP180;54238;52.278;21.056;2023-04-03T05:06:25;101120.60;;;0.10
67353;BMP180;54238;52.278;21.056;2023-04-03T05:08:52;101123.20;;;0.10
67353;BMP180;54238;52.278;21.056;2023-04-03T05:11:19;101126.60;;;0.10
67353;BMP180;54238;52.278;21.056;2023-04-03T05:13:47;101133.80;;;0.20
67353;BMP180;54238;52.278;21.056;2023-04-03T05:16:27;101134.00;;;0.20
67353;BMP180;54238;52.278;21.056;2023-04-03T05:18:54;101130.60;;;0.20
67353;BMP180;54238;52.278;21.056;2023-04-03T05:21:21;101131.60;;;0.20
67353;BMP180;54238;52.278;21.056;2023-04-03T05:23:54;101134.80;;;0.20
67353;BMP180;54238;52.278;21.056;2023-04-03T05:26:24;101144.20;;;0.30
67353;BMP180;54238;52.278;21.056;2023-04-03T05:28:53;101146.20;;;0.30
67353;BMP180;54238;52.278;21.056;2023-04-03T05:31:21;101148.20;;;0.30
67353;BMP180;54238;52.278;21.056;2023-04-03T05:33:51;101149.40;;;0.32
67353;BMP180;54238;52.278;21.056;2023-04-03T05:36:18;101153.00;;;0.40
67353;BMP180;54238;52.278;21.056;2023-04-03T05:38:45;101147.00;;;0.40
67353;BMP180;54238;52.278;21.056;2023-04-03T05:41:15;101151.20;;;0.32
67353;BMP180;54238;52.278;21.056;2023-04-03T05:43:44;101159.80;;;0.40
67353;BMP180;54238;52.278;21.056;2023-04-03T05:46:15;101161.20;;;0.40
67353;BMP180;54238;52.278;21.056;2023-04-03T05:48:46;101158.80;;;0.44
67353;BMP180;54238;52.278;21.056;2023-04-03T05:51:24;101161.20;;;0.50
67353;BMP180;54238;52.278;21.056;2023-04-03T05:54:03;101160.60;;;0.50
67353;BMP180;54238;52.278;21.056;2023-04-03T05:56:35;101169.60;;;0.50
67353;BMP180;54238;52.278;21.056;2023-04-03T05:59:05;101171.40;;;0.52
67353;BMP180;54238;52.278;21.056;2023-04-03T06:01:33;101170.40;;;0.60
67353;BMP180;54238;52.278;21.056;2023-04-03T06:04:01;101168.80;;;0.68
67353;BMP180;54238;52.278;21.056;2023-04-03T06:06:55;101170.40;;;0.70
67353;BMP180;54238;52.278;21.056;2023-04-03T06:09:28;101173.80;;;0.78
67353;BMP180;54238;52.278;21.056;2023-04-03T06:12:00;101171.40;;;0.80
67353;BMP180;54238;52.278;21.056;2023-04-03T06:14:32;101177.40;;;0.90
67353;BMP180;54238;52.278;21.056;2023-04-03T06:17:03;101181.00;;;1.00
67353;BMP180;54238;52.278;21.056;2023-04-03T06:19:33;101182.60;;;1.10
67353;BMP180;54238;52.278;21.056;2023-04-03T06:22:05;101179.00;;;1.28
67353;BMP180;54238;52.278;21.056;2023-04-03T06:24:38;101183.40;;;1.34
67353;BMP180;54238;52.278;21.056;2023-04-03T06:27:08;101185.40;;;1.40
67353;BMP180;54238;52.278;21.056;2023-04-03T06:29:41;101184.80;;;1.32
67353;BMP180;54238;52.278;21.056;2023-04-03T06:32:14;101198.20;;;1.28
67353;BMP180;54238;52.278;21.056;2023-04-03T06:34:46;101195.80;;;1.30
67353;BMP180;54238;52.278;21.056;2023-04-03T06:37:22;101198.60;;;1.30
67353;BMP180;54238;52.278;21.056;2023-04-03T06:39:55;101195.60;;;1.30
67353;BMP180;54238;52.278;21.056;2023-04-03T06:42:30;101194.40;;;1.34
67353;BMP180;54238;52.278;21.056;2023-04-03T06:44:57;101195.00;;;1.40
67353;BMP180;54238;52.278;21.056;2023-04-03T06:47:26;101201.40;;;1.50
67353;BMP180;54238;52.278;21.056;2023-04-03T06:49:53;101205.80;;;1.58
67353;BMP180;54238;52.278;21.056;2023-04-03T06:52:23;101207.80;;;1.60
67353;BMP180;54238;52.278;21.056;2023-04-03T06:54:50;101208.40;;;1.70
67353;BMP180;54238;52.278;21.056;2023-04-03T06:57:28;101211.00;;;1.70
67353;BMP180;54238;52.278;21.056;2023-04-03T06:59:56;101210.60;;;1.84
67353;BMP180;54238;52.278;21.056;2023-04-03T07:02:31;101210.60;;;1.90
67353;BMP180;54238;52.278;21.056;2023-04-03T07:05:01;101215.20;;;2.00
67353;BMP180;54238;52.278;21.056;2023-04-03T07:07:28;101209.60;;;2.10
67353;BMP180;54238;52.278;21.056;2023-04-03T07:10:00;101218.60;;;2.20
67353;BMP180;54238;52.278;21.056;2023-04-03T07:12:27;101216.40;;;2.30
67353;BMP180;54238;52.278;21.056;2023-04-03T07:14:57;101219.00;;;2.40
67353;BMP180;54238;52.278;21.056;2023-04-03T07:17:24;101216.80;;;2.48
67353;BMP180;54238;52.278;21.056;2023-04-03T07:20:12;101224.20;;;2.56
67353;BMP180;54238;52.278;21.056;2023-04-03T07:22:42;101226.80;;;2.68
67353;BMP180;54238;52.278;21.056;2023-04-03T07:25:16;101221.20;;;2.76
67353;BMP180;54238;52.278;21.056;2023-04-03T07:27:44;101229.40;;;2.80
67353;BMP180;54238;52.278;21.056;2023-04-03T07:30:11;101230.20;;;2.90
67353;BMP180;54238;52.278;21.056;2023-04-03T07:32:43;101233.80;;;3.00
67353;BMP180;54238;52.278;21.056;2023-04-03T07:35:15;101236.60;;;3.10
67353;BMP180;54238;52.278;21.056;2023-04-03T07:37:44;101239.60;;;3.10
67353;BMP180;54238;52.278;21.056;2023-04-03T07:40:15;101235.40;;;3.20
67353;BMP180;54238;52.278;21.056;2023-04-03T07:42:46;101245.60;;;3.20
67353;BMP180;54238;52.278;21.056;2023-04-03T07:45:13;101244.60;;;3.30
67353;BMP180;54238;52.278;21.056;2023-04-03T07:47:46;101242.00;;;3.40
67353;BMP180;54238;52.278;21.056;2023-04-03T07:50:16;101253.20;;;3.54
67353;BMP180;54238;52.278;21.056;2023-04-03T07:52:47;101251.40;;;3.70
67353;BMP180;54238;52.278;21.056;2023-04-03T07:55:17;101246.00;;;3.80
67353;BMP180;54238;52.278;21.056;2023-04-03T07:57:47;101239.40;;;3.90
67353;BMP180;54238;52.278;21.056;2023-04-03T08:00:15;101246.60;;;4.00
67353;BMP180;54238;52.278;21.056;2023-04-03T08:02:44;101246.20;;;4.18
67353;BMP180;54238;52.278;21.056;2023-04-03T08:05:22;101240.60;;;4.30
67353;BMP180;54238;52.278;21.056;2023-04-03T08:07:50;101238.20;;;4.30
67353;BMP180;54238;52.278;21.056;2023-04-03T08:10:17;101238.80;;;4.40
67353;BMP180;54238;52.278;21.056;2023-04-03T08:12:48;101244.60;;;4.60
67353;BMP180;54238;52.278;21.056;2023-04-03T08:15:15;101239.40;;;4.76
67353;BMP180;54238;52.278;21.056;2023-04-03T08:17:43;101240.80;;;4.90
67353;BMP180;54238;52.278;21.056;2023-04-03T08:20:12;101249.40;;;5.00
67353;BMP180;54238;52.278;21.056;2023-04-03T08:22:40;101246.40;;;5.18
67353;BMP180;54238;52.278;21.056;2023-04-03T08:25:08;101245.20;;;5.32
67353;BMP180;54238;52.278;21.056;2023-04-03T08:27:35;101246.80;;;5.50
67353;BMP180;54238;52.278;21.056;2023-04-03T08:30:08;101253.60;;;5.62
67353;BMP180;54238;52.278;21.056;2023-04-03T08:32:44;101253.40;;;5.82
67353;BMP180;54238;52.278;21.056;2023-04-03T08:35:11;101259.60;;;6.00
67353;BMP180;54238;52.278;21.056;2023-04-03T08:37:41;101262.80;;;6.10
67353;BMP180;54238;52.278;21.056;2023-04-03T08:40:16;101260.20;;;6.18
67353;BMP180;54238;52.278;21.056;2023-04-03T08:45:52;101263.40;;;6.34
67353;BMP180;54238;52.278;21.056;2023-04-03T08:48:36;101262.00;;;6.50
67353;BMP180;54238;52.278;21.056;2023-04-03T08:51:17;101264.00;;;6.60
67353;BMP180;54238;52.278;21.056;2023-04-03T08:54:17;101261.40;;;6.72
67353;BMP180;54238;52.278;21.056;2023-04-03T08:56:46;101261.80;;;6.90
67353;BMP180;54238;52.278;21.056;2023-04-03T08:59:26;101266.20;;;6.96
67353;BMP180;54238;52.278;21.056;2023-04-03T09:02:01;101266.80;;;7.10
67353;BMP180;54238;52.278;21.056;2023-04-03T09:04:32;101259.00;;;7.20
67353;BMP180;54238;52.278;21.056;2023-04-03T09:07:10;101266.60;;;7.26
67353;BMP180;54238;52.278;21.056;2023-04-03T09:09:42;101267.80;;;7.40
67353;BMP180;54238;52.278;21.056;2023-04-03T09:12:34;101260.20;;;7.68
67353;BMP180;54238;52.278;21.056;2023-04-03T09:15:21;101266.40;;;7.94
67353;BMP180;54238;52.278;21.056;2023-04-03T09:23:53;101267.20;;;9.10
67353;BMP180;54238;52.278;21.056;2023-04-03T09:26:44;101268.00;;;9.20
67353;BMP180;54238;52.278;21.056;2023-04-03T09:29:21;101256.60;;;9.40
67353;BMP180;54238;52.278;21.056;2023-04-03T09:32:21;101270.20;;;9.70
67353;BMP180;54238;52.278;21.056;2023-04-03T09:34:50;101258.00;;;10.00
67353;BMP180;54238;52.278;21.056;2023-04-03T09:38:31;101277.80;;;10.20
67353;BMP180;54238;52.278;21.056;2023-04-03T09:40:44;101266.40;;;10.60
67353;BMP180;54238;52.278;21.056;2023-04-03T09:43:30;101275.00;;;10.80
67353;BMP180;54238;52.278;21.056;2023-04-03T09:46:33;101274.40;;;10.90
67353;BMP180;54238;52.278;21.056;2023-04-03T09:49:04;101279.20;;;11.22
67353;BMP180;54238;52.278;21.056;2023-04-03T09:51:32;101268.80;;;11.50
67353;BMP180;54238;52.278;21.056;2023-04-03T09:54:31;101273.60;;;11.70
67353;BMP180;54238;52.278;21.056;2023-04-03T09:57:12;101274.00;;;11.82
67353;BMP180;54238;52.278;21.056;2023-04-03T10:00:10;101284.20;;;12.26
67353;BMP180;54238;52.278;21.056;2023-04-03T10:02:51;101287.20;;;12.76
67353;BMP180;54238;52.278;21.056;2023-04-03T10:10:48;101295.80;;;12.72
67353;BMP180;54238;52.278;21.056;2023-04-03T10:13:34;101296.00;;;12.90
67353;BMP180;54238;52.278;21.056;2023-04-03T10:16:14;101293.20;;;13.18
67353;BMP180;54238;52.278;21.056;2023-04-03T10:24:35;101291.20;;;13.30
67353;BMP180;54238;52.278;21.056;2023-04-03T10:27:30;101292.60;;;13.84
67353;BMP180;54238;52.278;21.056;2023-04-03T10:47:25;101291.80;;;12.76
67353;BMP180;54238;52.278;21.056;2023-04-03T10:53:13;101297.60;;;12.50
67353;BMP180;54238;52.278;21.056;2023-04-03T10:58:36;101296.00;;;12.40
67353;BMP180;54238;52.278;21.056;2023-04-03T11:01:11;101303.40;;;12.60
67353;BMP180;54238;52.278;21.056;2023-04-03T11:03:45;101298.80;;;12.70
67353;BMP180;54238;52.278;21.056;2023-04-03T11:06:23;101293.00;;;13.22
67353;BMP180;54238;52.278;21.056;2023-04-03T11:08:57;101297.40;;;13.92
67353;BMP180;54238;52.278;21.056;2023-04-03T11:11:33;101299.20;;;14.62
67353;BMP180;54238;52.278;21.056;2023-04-03T11:14:15;101300.00;;;14.60
67353;BMP180;54238;52.278;21.056;2023-04-03T11:17:04;101305.00;;;14.10
67353;BMP180;54238;52.278;21.056;2023-04-03T11:19:52;101299.80;;;13.54
67353;BMP180;54238;52.278;21.056;2023-04-03T11:22:29;101295.20;;;14.18
67353;BMP180;54238;52.278;21.056;2023-04-03T11:27:54;101297.40;;;14.86
67353;BMP180;54238;52.278;21.056;2023-04-03T11:31:13;101290.00;;;14.20
67353;BMP180;54238;52.278;21.056;2023-04-03T11:34:08;101293.60;;;13.50
67353;BMP180;54238;52.278;21.056;2023-04-03T11:36:46;101281.60;;;13.54
67353;BMP180;54238;52.278;21.056;2023-04-03T11:42:22;101280.60;;;13.34
67353;BMP180;54238;52.278;21.056;2023-04-03T11:48:06;101276.20;;;12.40
67353;BMP180;54238;52.278;21.056;2023-04-03T11:50:50;101271.00;;;13.14
67353;BMP180;54238;52.278;21.056;2023-04-03T11:58:21;101276.80;;;14.52
67353;BMP180;54238;52.278;21.056;2023-04-03T12:01:10;101268.60;;;14.20
67353;BMP180;54238;52.278;21.056;2023-04-03T12:14:05;101278.60;;;16.18
67353;BMP180;54238;52.278;21.056;2023-04-03T12:16:50;101274.20;;;15.16
67353;BMP180;54238;52.278;21.056;2023-04-03T12:29:27;101277.80;;;13.40
67353;BMP180;54238;52.278;21.056;2023-04-03T12:41:45;101279.00;;;15.30
67353;BMP180;54238;52.278;21.056;2023-04-03T12:47:34;101284.20;;;14.68
67353;BMP180;54238;52.278;21.056;2023-04-03T12:50:27;101280.20;;;14.30
67353;BMP180;54238;52.278;21.056;2023-04-03T12:53:12;101273.20;;;13.90
67353;BMP180;54238;52.278;21.056;2023-04-03T12:55:49;101280.00;;;13.38
67353;BMP180;54238;52.278;21.056;2023-04-03T12:58:26;101273.00;;;13.30
67353;BMP180;54238;52.278;21.056;2023-04-03T13:01:11;101271.80;;;13.70
67353;BMP180;54238;52.278;21.056;2023-04-03T13:03:45;101277.40;;;13.90
67353;BMP180;54238;52.278;21.056;2023-04-03T13:06:38;101271.80;;;13.68
67353;BMP180;54238;52.278;21.056;2023-04-03T13:09:30;101264.20;;;13.10
67353;BMP180;54238;52.278;21.056;2023-04-03T13:12:12;101253.40;;;13.02
67353;BMP180;54238;52.278;21.056;2023-04-03T13:14:57;101270.00;;;13.20
67353;BMP180;54238;52.278;21.056;2023-04-03T13:17:26;101270.80;;;12.90
67353;BMP180;54238;52.278;21.056;2023-04-03T13:19:54;101276.20;;;12.46
67353;BMP180;54238;52.278;21.056;2023-04-03T13:22:34;101278.00;;;12.18
67353;BMP180;54238;52.278;21.056;2023-04-03T13:25:09;101269.60;;;11.80
67353;BMP180;54238;52.278;21.056;2023-04-03T13:27:40;101260.60;;;11.60
67353;BMP180;54238;52.278;21.056;2023-04-03T13:30:37;101269.20;;;11.70
67353;BMP180;54238;52.278;21.056;2023-04-03T13:33:28;101266.80;;;11.60
67353;BMP180;54238;52.278;21.056;2023-04-03T13:36:16;101260.80;;;11.40
67353;BMP180;54238;52.278;21.056;2023-04-03T13:39:05;101266.40;;;11.16
67353;BMP180;54238;52.278;21.056;2023-04-03T13:41:45;101264.20;;;10.84
67353;BMP180;54238;52.278;21.056;2023-04-03T13:50:03;101260.20;;;11.10
67353;BMP180;54238;52.278;21.056;2023-04-03T13:52:53;101259.20;;;11.00
67353;BMP180;54238;52.278;21.056;2023-04-03T13:55:34;101265.20;;;10.80
67353;BMP180;54238;52.278;21.056;2023-04-03T13:58:26;101265.60;;;10.78
67353;BMP180;54238;52.278;21.056;2023-04-03T14:03:55;101261.80;;;10.64
67353;BMP180;54238;52.278;21.056;2023-04-03T14:06:24;101252.80;;;11.62
67353;BMP180;54238;52.278;21.056;2023-04-03T14:08:52;101263.20;;;12.58
67353;BMP180;54238;52.278;21.056;2023-04-03T14:11:28;101257.80;;;12.98
67353;BMP180;54238;52.278;21.056;2023-04-03T14:14:06;101267.60;;;13.00
67353;BMP180;54238;52.278;21.056;2023-04-03T14:16:43;101265.80;;;12.64
67353;BMP180;54238;52.278;21.056;2023-04-03T14:19:22;101263.60;;;12.26
67353;BMP180;54238;52.278;21.056;2023-04-03T14:21:52;101248.80;;;12.20
67353;BMP180;54238;52.278;21.056;2023-04-03T14:24:23;101255.40;;;12.96
67353;BMP180;54238;52.278;21.056;2023-04-03T14:26:54;101267.00;;;13.76
67353;BMP180;54238;52.278;21.056;2023-04-03T14:29:24;101265.60;;;13.48
67353;BMP180;54238;52.278;21.056;2023-04-03T14:31:52;101269.60;;;13.10
67353;BMP180;54238;52.278;21.056;2023-04-03T14:34:19;101260.40;;;12.72
67353;BMP180;54238;52.278;21.056;2023-04-03T14:36:49;101264.20;;;12.32
67353;BMP180;54238;52.278;21.056;2023-04-03T14:39:21;101260.80;;;12.00
67353;BMP180;54238;52.278;21.056;2023-04-03T14:41:53;101259.80;;;11.70
67353;BMP180;54238;52.278;21.056;2023-04-03T14:44:22;101260.00;;;11.30
67353;BMP180;54238;52.278;21.056;2023-04-03T14:46:52;101258.80;;;11.00
67353;BMP180;54238;52.278;21.056;2023-04-03T14:49:27;101258.80;;;10.68
67353;BMP180;54238;52.278;21.056;2023-04-03T14:51:59;101256.60;;;10.34
67353;BMP180;54238;52.278;21.056;2023-04-03T14:54:27;101258.60;;;10.10
67353;BMP180;54238;52.278;21.056;2023-04-03T14:57:00;101254.40;;;9.90
67353;BMP180;54238;52.278;21.056;2023-04-03T14:59:30;101261.40;;;9.70
67353;BMP180;54238;52.278;21.056;2023-04-03T15:02:00;101258.20;;;9.50
67353;BMP180;54238;52.278;21.056;2023-04-03T15:04:36;101262.60;;;9.40
67353;BMP180;54238;52.278;21.056;2023-04-03T15:07:03;101259.40;;;9.30
67353;BMP180;54238;52.278;21.056;2023-04-03T15:09:30;101259.60;;;9.12
67353;BMP180;54238;52.278;21.056;2023-04-03T15:12:00;101257.60;;;9.00
67353;BMP180;54238;52.278;21.056;2023-04-03T15:14:27;101258.60;;;8.80
67353;BMP180;54238;52.278;21.056;2023-04-03T15:16:56;101257.40;;;8.70
67353;BMP180;54238;52.278;21.056;2023-04-03T15:19:26;101256.60;;;8.50
67353;BMP180;54238;52.278;21.056;2023-04-03T15:21:55;101258.20;;;8.40
67353;BMP180;54238;52.278;21.056;2023-04-03T15:24:25;101256.80;;;8.30
67353;BMP180;54238;52.278;21.056;2023-04-03T15:26:52;101260.40;;;8.10
67353;BMP180;54238;52.278;21.056;2023-04-03T15:29:19;101261.60;;;7.94
67353;BMP180;54238;52.278;21.056;2023-04-03T15:31:48;101257.40;;;7.80
67353;BMP180;54238;52.278;21.056;2023-04-03T15:34:19;101255.80;;;7.60
67353;BMP180;54238;52.278;21.056;2023-04-03T15:36:46;101261.40;;;7.50
67353;BMP180;54238;52.278;21.056;2023-04-03T15:39:15;101267.00;;;7.40
67353;BMP180;54238;52.278;21.056;2023-04-03T15:41:44;101265.80;;;7.40
67353;BMP180;54238;52.278;21.056;2023-04-03T15:44:12;101263.20;;;7.40
67353;BMP180;54238;52.278;21.056;2023-04-03T15:46:39;101265.20;;;7.30
67353;BMP180;54238;52.278;21.056;2023-04-03T15:49:10;101263.00;;;7.30
67353;BMP180;54238;52.278;21.056;2023-04-03T15:51:37;101262.60;;;7.20
67353;BMP180;54238;52.278;21.056;2023-04-03T15:54:04;101264.40;;;7.20
67353;BMP180;54238;52.278;21.056;2023-04-03T15:56:33;101260.00;;;7.10
67353;BMP180;54238;52.278;21.056;2023-04-03T15:59:08;101263.80;;;7.00
67353;BMP180;54238;52.278;21.056;2023-04-03T16:01:39;101263.60;;;7.00
67353;BMP180;54238;52.278;21.056;2023-04-03T16:04:08;101264.40;;;7.00
67353;BMP180;54238;52.278;21.056;2023-04-03T16:06:38;101265.00;;;6.90
67353;BMP180;54238;52.278;21.056;2023-04-03T16:09:06;101263.40;;;6.90
67353;BMP180;54238;52.278;21.056;2023-04-03T16:11:38;101268.00;;;6.80
67353;BMP180;54238;52.278;21.056;2023-04-03T16:14:13;101259.60;;;6.80
67353;BMP180;54238;52.278;21.056;2023-04-03T16:16:43;101256.80;;;6.72